sensor_id;sensor_type;location;lat;lon;timestamp;temperature;humidity
47414;DHT22;33163;0.000;0.000;2023-06-10T00:00:02;22.60;64.90
47414;DHT22;33163;0.000;0.000;2023-06-10T00:02:31;22.60;64.90
47414;DHT22;33163;0.000;0.000;2023-06-10T00:04:57;22.60;64.90
47414;DHT22;33163;0.000;0.000;2023-06-10T00:07:24;22.60;64.90
47414;DHT22;33163;0.000;0.000;2023-06-10T00:09:52;22.70;64.90
47414;DHT22;33163;0.000;0.000;2023-06-10T00:12:20;22.60;64.80
47414;DHT22;33163;0.000;0.000;2023-06-10T00:14:47;22.60;64.90
47414;DHT22;33163;0.000;0.000;2023-06-10T00:17:15;22.60;64.90
47414;DHT22;33163;0.000;0.000;2023-06-10T00:19:42;22.60;64.90
47414;DHT22;33163;0.000;0.000;2023-06-10T00:22:09;22.60;64.90
47414;DHT22;33163;0.000;0.000;2023-06-10T00:24:36;22.60;64.80
47414;DHT22;33163;0.000;0.000;2023-06-10T00:27:05;22.60;64.80
47414;DHT22;33163;0.000;0.000;2023-06-10T00:29:32;22.60;64.80
47414;DHT22;33163;0.000;0.000;2023-06-10T00:31:59;22.60;64.80
47414;DHT22;33163;0.000;0.000;2023-06-10T00:34:25;22.60;64.80
47414;DHT22;33163;0.000;0.000;2023-06-10T00:36:52;22.60;64.80
47414;DHT22;33163;0.000;0.000;2023-06-10T00:39:19;22.60;64.70
47414;DHT22;33163;0.000;0.000;2023-06-10T00:41:46;22.60;64.70
47414;DHT22;33163;0.000;0.000;2023-06-10T00:44:15;22.60;64.70
47414;DHT22;33163;0.000;0.000;2023-06-10T00:46:42;22.60;65.40
47414;DHT22;33163;0.000;0.000;2023-06-10T00:49:09;22.60;64.70
47414;DHT22;33163;0.000;0.000;2023-06-10T00:51:36;22.60;64.70
47414;DHT22;33163;0.000;0.000;2023-06-10T00:54:02;22.60;64.60
47414;DHT22;33163;0.000;0.000;2023-06-10T00:56:29;22.60;64.60
47414;DHT22;33163;0.000;0.000;2023-06-10T00:58:57;22.60;64.60
47414;DHT22;33163;0.000;0.000;2023-06-10T01:01:25;22.60;64.60
47414;DHT22;33163;0.000;0.000;2023-06-10T01:03:52;22.60;64.60
47414;DHT22;33163;0.000;0.000;2023-06-10T01:06:24;22.60;64.50
47414;DHT22;33163;0.000;0.000;2023-06-10T01:08:57;22.60;64.50
47414;DHT22;33163;0.000;0.000;2023-06-10T01:11:36;22.60;64.50
47414;DHT22;33163;0.000;0.000;2023-06-10T01:14:07;22.60;64.50
47414;DHT22;33163;0.000;0.000;2023-06-10T01:16:37;22.60;64.50
47414;DHT22;33163;0.000;0.000;2023-06-10T01:19:06;22.60;64.40
47414;DHT22;33163;0.000;0.000;2023-06-10T01:21:34;22.60;64.40
47414;DHT22;33163;0.000;0.000;2023-06-10T01:24:01;22.60;64.30
47414;DHT22;33163;0.000;0.000;2023-06-10T01:26:30;22.60;64.30
47414;DHT22;33163;0.000;0.000;2023-06-10T01:29:02;22.50;64.30
47414;DHT22;33163;0.000;0.000;2023-06-10T01:31:34;22.50;64.30
47414;DHT22;33163;0.000;0.000;2023-06-10T01:34:09;22.50;64.20
47414;DHT22;33163;0.000;0.000;2023-06-10T01:36:38;22.50;64.20
47414;DHT22;33163;0.000;0.000;2023-06-10T01:39:08;22.50;64.20
47414;DHT22;33163;0.000;0.000;2023-06-10T01:41:36;22.50;64.20
47414;DHT22;33163;0.000;0.000;2023-06-10T01:44:04;22.60;64.20
47414;DHT22;33163;0.000;0.000;2023-06-10T01:46:30;22.50;64.10
47414;DHT22;33163;0.000;0.000;2023-06-10T01:48:57;22.50;64.10
47414;DHT22;33163;0.000;0.000;2023-06-10T01:51:24;22.50;64.10
47414;DHT22;33163;0.000;0.000;2023-06-10T01:53:52;22.50;64.00
47414;DHT22;33163;0.000;0.000;2023-06-10T01:56:19;22.50;64.10
47414;DHT22;33163;0.000;0.000;2023-06-10T01:58:46;22.50;64.00
47414;DHT22;33163;0.000;0.000;2023-06-10T02:01:13;22.50;64.00
47414;DHT22;33163;0.000;0.000;2023-06-10T02:03:40;22.50;64.00
47414;DHT22;33163;0.000;0.000;2023-06-10T02:06:07;22.50;63.90
47414;DHT22;33163;0.000;0.000;2023-06-10T02:08:34;22.50;63.90
47414;DHT22;33163;0.000;0.000;2023-06-10T02:11:02;22.50;63.90
47414;DHT22;33163;0.000;0.000;2023-06-10T02:13:29;22.50;63.90
47414;DHT22;33163;0.000;0.000;2023-06-10T02:15:55;22.50;63.90
47414;DHT22;33163;0.000;0.000;2023-06-10T02:18:22;22.50;63.90
47414;DHT22;33163;0.000;0.000;2023-06-10T02:20:49;22.50;63.80
47414;DHT22;33163;0.000;0.000;2023-06-10T02:23:16;22.50;63.80
47414;DHT22;33163;0.000;0.000;2023-06-10T02:25:42;22.50;63.80
47414;DHT22;33163;0.000;0.000;2023-06-10T02:28:11;22.50;63.80
47414;DHT22;33163;0.000;0.000;2023-06-10T02:30:39;22.50;63.80
47414;DHT22;33163;0.000;0.000;2023-06-10T02:33:06;22.50;63.70
47414;DHT22;33163;0.000;0.000;2023-06-10T02:35:35;22.50;63.70
47414;DHT22;33163;0.000;0.000;2023-06-10T02:38:02;22.50;63.70
47414;DHT22;33163;0.000;0.000;2023-06-10T02:40:29;22.50;63.70
47414;DHT22;33163;0.000;0.000;2023-06-10T02:42:56;22.50;63.70
47414;DHT22;33163;0.000;0.000;2023-06-10T02:45:25;22.50;64.30
47414;DHT22;33163;0.000;0.000;2023-06-10T02:47:52;22.50;63.60
47414;DHT22;33163;0.000;0.000;2023-06-10T02:50:19;22.50;63.60
47414;DHT22;33163;0.000;0.000;2023-06-10T02:52:45;22.50;63.60
47414;DHT22;33163;0.000;0.000;2023-06-10T02:55:12;22.50;63.60
47414;DHT22;33163;0.000;0.000;2023-06-10T02:57:39;22.50;63.60
47414;DHT22;33163;0.000;0.000;2023-06-10T03:00:07;22.50;63.60
47414;DHT22;33163;0.000;0.000;2023-06-10T03:02:37;22.50;63.50
47414;DHT22;33163;0.000;0.000;2023-06-10T03:05:05;22.50;63.50
47414;DHT22;33163;0.000;0.000;2023-06-10T03:07:35;22.50;63.50
47414;DHT22;33163;0.000;0.000;2023-06-10T03:10:02;22.40;63.40
47414;DHT22;33163;0.000;0.000;2023-06-10T03:12:29;22.40;63.40
47414;DHT22;33163;0.000;0.000;2023-06-10T03:14:56;22.40;63.40
47414;DHT22;33163;0.000;0.000;2023-06-10T03:17:22;22.50;63.40
47414;DHT22;33163;0.000;0.000;2023-06-10T03:19:50;22.40;63.30
47414;DHT22;33163;0.000;0.000;2023-06-10T03:22:17;22.40;63.30
47414;DHT22;33163;0.000;0.000;2023-06-10T03:24:44;22.40;63.30
47414;DHT22;33163;0.000;0.000;2023-06-10T03:27:11;22.40;63.30
47414;DHT22;33163;0.000;0.000;2023-06-10T03:29:38;22.40;63.30
47414;DHT22;33163;0.000;0.000;2023-06-10T03:32:06;22.40;63.20
47414;DHT22;33163;0.000;0.000;2023-06-10T03:34:33;22.40;63.20
47414;DHT22;33163;0.000;0.000;2023-06-10T03:37:01;22.40;63.20
47414;DHT22;33163;0.000;0.000;2023-06-10T03:39:28;22.40;63.20
47414;DHT22;33163;0.000;0.000;2023-06-10T03:41:55;22.40;63.10
47414;DHT22;33163;0.000;0.000;2023-06-10T03:44:24;22.40;63.10
47414;DHT22;33163;0.000;0.000;2023-06-10T03:46:51;22.40;63.10
47414;DHT22;33163;0.000;0.000;2023-06-10T03:49:18;22.40;63.00
47414;DHT22;33163;0.000;0.000;2023-06-10T03:51:45;22.40;63.10
47414;DHT22;33163;0.000;0.000;2023-06-10T03:54:13;22.40;63.00
47414;DHT22;33163;0.000;0.000;2023-06-10T03:56:40;22.40;63.00
47414;DHT22;33163;0.000;0.000;2023-06-10T03:59:06;22.40;63.00
47414;DHT22;33163;0.000;0.000;2023-06-10T04:01:33;22.40;63.00
47414;DHT22;33163;0.000;0.000;2023-06-10T04:04:02;22.40;62.90
47414;DHT22;33163;0.000;0.000;2023-06-10T04:06:29;22.40;62.90
47414;DHT22;33163;0.000;0.000;2023-06-10T04:08:57;22.40;62.90
47414;DHT22;33163;0.000;0.000;2023-06-10T04:11:25;22.40;62.90
47414;DHT22;33163;0.000;0.000;2023-06-10T04:13:52;22.40;63.50
47414;DHT22;33163;0.000;0.000;2023-06-10T04:16:19;22.40;63.50
47414;DHT22;33163;0.000;0.000;2023-06-10T04:18:46;22.30;62.80
47414;DHT22;33163;0.000;0.000;2023-06-10T04:21:13;22.30;62.80
47414;DHT22;33163;0.000;0.000;2023-06-10T04:23:40;22.40;62.80
47414;DHT22;33163;0.000;0.000;2023-06-10T04:26:07;22.40;62.80
47414;DHT22;33163;0.000;0.000;2023-06-10T04:28:35;22.40;62.80
47414;DHT22;33163;0.000;0.000;2023-06-10T04:31:02;22.40;62.70
47414;DHT22;33163;0.000;0.000;2023-06-10T04:33:29;22.30;62.70
47414;DHT22;33163;0.000;0.000;2023-06-10T04:35:57;22.30;62.70
47414;DHT22;33163;0.000;0.000;2023-06-10T04:38:24;22.30;62.70
47414;DHT22;33163;0.000;0.000;2023-06-10T04:40:50;22.30;62.60
47414;DHT22;33163;0.000;0.000;2023-06-10T04:43:17;22.40;62.70
47414;DHT22;33163;0.000;0.000;2023-06-10T04:45:45;22.30;62.60
47414;DHT22;33163;0.000;0.000;2023-06-10T04:48:12;22.30;62.60
47414;DHT22;33163;0.000;0.000;2023-06-10T04:50:39;22.40;62.70
47414;DHT22;33163;0.000;0.000;2023-06-10T04:53:06;22.30;62.70
47414;DHT22;33163;0.000;0.000;2023-06-10T04:55:33;22.40;62.70
47414;DHT22;33163;0.000;0.000;2023-06-10T04:58:01;22.40;62.70
47414;DHT22;33163;0.000;0.000;2023-06-10T05:00:28;22.30;62.70
47414;DHT22;33163;0.000;0.000;2023-06-10T05:02:56;22.30;62.70
47414;DHT22;33163;0.000;0.000;2023-06-10T05:05:23;22.30;62.70
47414;DHT22;33163;0.000;0.000;2023-06-10T05:07:50;22.30;62.70
47414;DHT22;33163;0.000;0.000;2023-06-10T05:10:17;22.30;62.70
47414;DHT22;33163;0.000;0.000;2023-06-10T05:12:43;22.30;62.70
47414;DHT22;33163;0.000;0.000;2023-06-10T05:15:10;22.30;62.70
47414;DHT22;33163;0.000;0.000;2023-06-10T05:17:37;22.40;62.80
47414;DHT22;33163;0.000;0.000;2023-06-10T05:20:06;22.30;62.70
47414;DHT22;33163;0.000;0.000;2023-06-10T05:22:33;22.30;62.80
47414;DHT22;33163;0.000;0.000;2023-06-10T05:25:00;22.30;62.80
47414;DHT22;33163;0.000;0.000;2023-06-10T05:27:28;22.30;62.80
47414;DHT22;33163;0.000;0.000;2023-06-10T05:29:55;22.40;62.90
47414;DHT22;33163;0.000;0.000;2023-06-10T05:32:22;22.40;62.90
47414;DHT22;33163;0.000;0.000;2023-06-10T05:34:48;22.30;62.90
47414;DHT22;33163;0.000;0.000;2023-06-10T05:37:16;22.40;62.90
47414;DHT22;33163;0.000;0.000;2023-06-10T05:39:43;22.30;63.00
47414;DHT22;33163;0.000;0.000;2023-06-10T05:42:10;22.30;63.00
47414;DHT22;33163;0.000;0.000;2023-06-10T05:44:37;22.30;63.10
47414;DHT22;33163;0.000;0.000;2023-06-10T05:47:04;22.30;63.10
47414;DHT22;33163;0.000;0.000;2023-06-10T05:49:31;22.30;63.10
47414;DHT22;33163;0.000;0.000;2023-06-10T05:51:57;22.30;63.10
47414;DHT22;33163;0.000;0.000;2023-06-10T05:54:26;22.30;63.20
47414;DHT22;33163;0.000;0.000;2023-06-10T05:56:52;22.40;63.20
47414;DHT22;33163;0.000;0.000;2023-06-10T05:59:19;22.40;63.20
47414;DHT22;33163;0.000;0.000;2023-06-10T06:01:48;22.40;63.30
47414;DHT22;33163;0.000;0.000;2023-06-10T06:04:15;22.30;63.10
47414;DHT22;33163;0.000;0.000;2023-06-10T06:06:42;22.40;63.20
47414;DHT22;33163;0.000;0.000;2023-06-10T06:09:08;22.40;63.20
47414;DHT22;33163;0.000;0.000;2023-06-10T06:11:36;22.40;63.10
47414;DHT22;33163;0.000;0.000;2023-06-10T06:14:03;22.40;63.20
47414;DHT22;33163;0.000;0.000;2023-06-10T06:16:30;22.40;63.30
47414;DHT22;33163;0.000;0.000;2023-06-10T06:18:57;22.40;63.30
47414;DHT22;33163;0.000;0.000;2023-06-10T06:21:23;22.40;63.20
47414;DHT22;33163;0.000;0.000;2023-06-10T06:23:50;22.40;63.10
47414;DHT22;33163;0.000;0.000;2023-06-10T06:26:17;22.40;63.20
47414;DHT22;33163;0.000;0.000;2023-06-10T06:28:45;22.40;63.10
47414;DHT22;33163;0.000;0.000;2023-06-10T06:31:12;22.40;63.20
47414;DHT22;33163;0.000;0.000;2023-06-10T06:33:38;22.40;63.10
47414;DHT22;33163;0.000;0.000;2023-06-10T06:36:05;22.40;63.10
47414;DHT22;33163;0.000;0.000;2023-06-10T06:38:32;22.40;63.20
47414;DHT22;33163;0.000;0.000;2023-06-10T06:40:59;22.50;63.30
47414;DHT22;33163;0.000;0.000;2023-06-10T06:43:28;22.40;63.10
47414;DHT22;33163;0.000;0.000;2023-06-10T06:45:57;22.40;63.20
47414;DHT22;33163;0.000;0.000;2023-06-10T06:48:24;22.40;63.20
47414;DHT22;33163;0.000;0.000;2023-06-10T06:50:51;22.50;63.30
47414;DHT22;33163;0.000;0.000;2023-06-10T06:53:17;22.50;63.20
47414;DHT22;33163;0.000;0.000;2023-06-10T06:55:44;22.50;63.20
47414;DHT22;33163;0.000;0.000;2023-06-10T06:58:11;22.50;63.30
47414;DHT22;33163;0.000;0.000;2023-06-10T07:00:38;22.50;63.20
47414;DHT22;33163;0.000;0.000;2023-06-10T07:03:06;22.50;63.30
47414;DHT22;33163;0.000;0.000;2023-06-10T07:05:32;22.50;63.30
47414;DHT22;33163;0.000;0.000;2023-06-10T07:07:59;22.50;63.30
47414;DHT22;33163;0.000;0.000;2023-06-10T07:10:26;22.50;63.30
47414;DHT22;33163;0.000;0.000;2023-06-10T07:12:53;22.50;63.30
47414;DHT22;33163;0.000;0.000;2023-06-10T07:15:20;22.50;63.30
47414;DHT22;33163;0.000;0.000;2023-06-10T07:17:47;22.50;63.30
47414;DHT22;33163;0.000;0.000;2023-06-10T07:20:15;22.50;63.30
47414;DHT22;33163;0.000;0.000;2023-06-10T07:22:42;22.60;63.30
47414;DHT22;33163;0.000;0.000;2023-06-10T07:25:08;22.60;63.30
47414;DHT22;33163;0.000;0.000;2023-06-10T07:27:35;22.60;63.30
47414;DHT22;33163;0.000;0.000;2023-06-10T07:30:03;22.60;63.30
47414;DHT22;33163;0.000;0.000;2023-06-10T07:32:30;22.60;63.30
47414;DHT22;33163;0.000;0.000;2023-06-10T07:34:57;22.60;63.30
47414;DHT22;33163;0.000;0.000;2023-06-10T07:37:25;22.60;63.30
47414;DHT22;33163;0.000;0.000;2023-06-10T07:39:52;22.60;63.90
47414;DHT22;33163;0.000;0.000;2023-06-10T07:42:18;22.60;63.20
47414;DHT22;33163;0.000;0.000;2023-06-10T07:44:45;22.60;63.20
47414;DHT22;33163;0.000;0.000;2023-06-10T07:47:12;22.70;63.30
47414;DHT22;33163;0.000;0.000;2023-06-10T07:49:38;22.70;63.20
47414;DHT22;33163;0.000;0.000;2023-06-10T07:52:07;22.70;63.20
47414;DHT22;33163;0.000;0.000;2023-06-10T07:54:36;22.80;63.20
47414;DHT22;33163;0.000;0.000;2023-06-10T07:57:03;22.80;63.20
47414;DHT22;33163;0.000;0.000;2023-06-10T07:59:30;22.80;63.20
47414;DHT22;33163;0.000;0.000;2023-06-10T08:01:56;22.80;63.20
47414;DHT22;33163;0.000;0.000;2023-06-10T08:04:23;22.80;63.30
47414;DHT22;33163;0.000;0.000;2023-06-10T08:06:50;22.90;63.30
47414;DHT22;33163;0.000;0.000;2023-06-10T08:09:17;22.90;63.30
47414;DHT22;33163;0.000;0.000;2023-06-10T08:11:46;22.90;63.30
47414;DHT22;33163;0.000;0.000;2023-06-10T08:14:13;22.90;63.40
47414;DHT22;33163;0.000;0.000;2023-06-10T08:16:40;22.90;63.50
47414;DHT22;33163;0.000;0.000;2023-06-10T08:19:06;22.90;63.60
47414;DHT22;33163;0.000;0.000;2023-06-10T08:21:34;23.00;63.80
47414;DHT22;33163;0.000;0.000;2023-06-10T08:24:02;23.00;63.80
47414;DHT22;33163;0.000;0.000;2023-06-10T08:26:28;23.00;63.80
47414;DHT22;33163;0.000;0.000;2023-06-10T08:28:57;23.00;63.90
47414;DHT22;33163;0.000;0.000;2023-06-10T08:31:23;23.00;63.90
47414;DHT22;33163;0.000;0.000;2023-06-10T08:33:52;23.00;63.90
47414;DHT22;33163;0.000;0.000;2023-06-10T08:36:18;23.00;63.90
47414;DHT22;33163;0.000;0.000;2023-06-10T08:38:45;23.00;63.90
47414;DHT22;33163;0.000;0.000;2023-06-10T08:41:14;23.00;63.90
47414;DHT22;33163;0.000;0.000;2023-06-10T08:43:47;23.00;63.90
47414;DHT22;33163;0.000;0.000;2023-06-10T08:46:16;23.10;64.10
47414;DHT22;33163;0.000;0.000;2023-06-10T08:48:43;23.10;64.20
47414;DHT22;33163;0.000;0.000;2023-06-10T08:51:11;23.10;64.20
47414;DHT22;33163;0.000;0.000;2023-06-10T08:53:42;23.10;64.10
47414;DHT22;33163;0.000;0.000;2023-06-10T08:56:11;23.20;64.20
47414;DHT22;33163;0.000;0.000;2023-06-10T08:58:38;23.20;64.10
47414;DHT22;33163;0.000;0.000;2023-06-10T09:01:07;23.20;64.10
47414;DHT22;33163;0.000;0.000;2023-06-10T09:03:37;23.20;64.10
47414;DHT22;33163;0.000;0.000;2023-06-10T09:06:05;23.20;64.10
47414;DHT22;33163;0.000;0.000;2023-06-10T09:08:33;23.20;64.10
47414;DHT22;33163;0.000;0.000;2023-06-10T09:11:00;23.20;64.00
47414;DHT22;33163;0.000;0.000;2023-06-10T09:13:27;23.20;64.00
47414;DHT22;33163;0.000;0.000;2023-06-10T09:15:54;23.20;63.90
47414;DHT22;33163;0.000;0.000;2023-06-10T09:18:22;23.20;63.90
47414;DHT22;33163;0.000;0.000;2023-06-10T09:20:50;23.30;64.00
47414;DHT22;33163;0.000;0.000;2023-06-10T09:23:17;23.30;64.00
47414;DHT22;33163;0.000;0.000;2023-06-10T09:25:44;23.20;63.80
47414;DHT22;33163;0.000;0.000;2023-06-10T09:28:14;23.30;64.60
47414;DHT22;33163;0.000;0.000;2023-06-10T09:30:41;23.30;63.90
47414;DHT22;33163;0.000;0.000;2023-06-10T09:33:12;23.30;63.90
47414;DHT22;33163;0.000;0.000;2023-06-10T09:35:45;23.30;64.50
47414;DHT22;33163;0.000;0.000;2023-06-10T09:38:15;23.30;63.90
47414;DHT22;33163;0.000;0.000;2023-06-10T09:40:49;23.30;63.80
47414;DHT22;33163;0.000;0.000;2023-06-10T09:43:17;23.30;63.80
47414;DHT22;33163;0.000;0.000;2023-06-10T09:45:44;23.30;63.80
47414;DHT22;33163;0.000;0.000;2023-06-10T09:48:13;23.30;63.80
47414;DHT22;33163;0.000;0.000;2023-06-10T09:50:42;23.40;63.80
47414;DHT22;33163;0.000;0.000;2023-06-10T09:53:09;23.40;63.70
47414;DHT22;33163;0.000;0.000;2023-06-10T09:55:39;23.40;63.80
47414;DHT22;33163;0.000;0.000;2023-06-10T09:58:06;23.40;63.70
47414;DHT22;33163;0.000;0.000;2023-06-10T10:00:33;23.40;63.70
47414;DHT22;33163;0.000;0.000;2023-06-10T10:03:00;23.40;63.70
47414;DHT22;33163;0.000;0.000;2023-06-10T10:05:28;23.40;63.60
47414;DHT22;33163;0.000;0.000;2023-06-10T10:07:55;23.40;63.60
47414;DHT22;33163;0.000;0.000;2023-06-10T10:10:22;23.50;63.70
47414;DHT22;33163;0.000;0.000;2023-06-10T10:12:54;23.50;64.30
47414;DHT22;33163;0.000;0.000;2023-06-10T10:15:24;23.50;63.60
47414;DHT22;33163;0.000;0.000;2023-06-10T10:17:53;23.50;63.60
47414;DHT22;33163;0.000;0.000;2023-06-10T10:20:26;23.50;63.60
47414;DHT22;33163;0.000;0.000;2023-06-10T10:22:56;23.50;63.60
47414;DHT22;33163;0.000;0.000;2023-06-10T10:25:26;23.50;63.50
47414;DHT22;33163;0.000;0.000;2023-06-10T10:27:58;23.50;63.50
47414;DHT22;33163;0.000;0.000;2023-06-10T10:30:26;23.50;63.50
47414;DHT22;33163;0.000;0.000;2023-06-10T10:32:57;23.50;63.50
47414;DHT22;33163;0.000;0.000;2023-06-10T10:35:25;23.60;63.50
47414;DHT22;33163;0.000;0.000;2023-06-10T10:37:53;23.60;63.40
47414;DHT22;33163;0.000;0.000;2023-06-10T10:40:21;23.60;63.50
47414;DHT22;33163;0.000;0.000;2023-06-10T10:42:48;23.60;63.40
47414;DHT22;33163;0.000;0.000;2023-06-10T10:45:17;23.60;63.40
47414;DHT22;33163;0.000;0.000;2023-06-10T10:47:45;23.70;63.40
47414;DHT22;33163;0.000;0.000;2023-06-10T10:50:16;23.70;63.40
47414;DHT22;33163;0.000;0.000;2023-06-10T10:52:56;23.70;63.40
47414;DHT22;33163;0.000;0.000;2023-06-10T10:55:26;23.70;63.30
47414;DHT22;33163;0.000;0.000;2023-06-10T10:57:55;23.70;63.30
47414;DHT22;33163;0.000;0.000;2023-06-10T11:00:30;23.70;63.30
47414;DHT22;33163;0.000;0.000;2023-06-10T11:02:57;23.70;63.20
47414;DHT22;33163;0.000;0.000;2023-06-10T11:05:32;23.70;63.20
47414;DHT22;33163;0.000;0.000;2023-06-10T11:08:02;23.70;63.30
47414;DHT22;33163;0.000;0.000;2023-06-10T11:10:30;23.70;63.20
47414;DHT22;33163;0.000;0.000;2023-06-10T11:12:57;23.70;63.20
47414;DHT22;33163;0.000;0.000;2023-06-10T11:15:26;23.70;63.10
47414;DHT22;33163;0.000;0.000;2023-06-10T11:18:14;23.80;63.20
47414;DHT22;33163;0.000;0.000;2023-06-10T11:21:02;23.80;63.20
47414;DHT22;33163;0.000;0.000;2023-06-10T11:26:17;23.70;62.80
47414;DHT22;33163;0.000;0.000;2023-06-10T11:29:08;23.80;62.80
47414;DHT22;33163;0.000;0.000;2023-06-10T11:31:45;23.80;62.80
47414;DHT22;33163;0.000;0.000;2023-06-10T11:34:15;23.80;62.80
47414;DHT22;33163;0.000;0.000;2023-06-10T11:36:49;23.80;62.80
47414;DHT22;33163;0.000;0.000;2023-06-10T11:39:17;23.90;62.80
47414;DHT22;33163;0.000;0.000;2023-06-10T11:41:45;23.90;62.80
47414;DHT22;33163;0.000;0.000;2023-06-10T11:44:13;23.80;62.50
47414;DHT22;33163;0.000;0.000;2023-06-10T11:46:41;23.90;62.40
47414;DHT22;33163;0.000;0.000;2023-06-10T11:49:08;23.80;62.30
47414;DHT22;33163;0.000;0.000;2023-06-10T11:51:37;23.90;62.30
47414;DHT22;33163;0.000;0.000;2023-06-10T11:54:07;23.80;62.30
47414;DHT22;33163;0.000;0.000;2023-06-10T11:56:35;23.90;62.30
47414;DHT22;33163;0.000;0.000;2023-06-10T11:59:03;23.90;62.40
47414;DHT22;33163;0.000;0.000;2023-06-10T12:01:32;23.90;62.30
47414;DHT22;33163;0.000;0.000;2023-06-10T12:04:01;23.90;62.80
47414;DHT22;33163;0.000;0.000;2023-06-10T12:06:39;23.90;62.90
47414;DHT22;33163;0.000;0.000;2023-06-10T12:09:06;23.90;63.00
47414;DHT22;33163;0.000;0.000;2023-06-10T12:11:33;23.90;63.10
47414;DHT22;33163;0.000;0.000;2023-06-10T12:14:00;23.90;63.20
47414;DHT22;33163;0.000;0.000;2023-06-10T12:16:29;23.90;63.40
47414;DHT22;33163;0.000;0.000;2023-06-10T12:19:01;24.00;63.50
47414;DHT22;33163;0.000;0.000;2023-06-10T12:21:29;24.00;63.50
47414;DHT22;33163;0.000;0.000;2023-06-10T12:24:05;24.00;63.60
47414;DHT22;33163;0.000;0.000;2023-06-10T12:26:42;24.00;63.60
47414;DHT22;33163;0.000;0.000;2023-06-10T12:29:28;24.00;63.50
47414;DHT22;33163;0.000;0.000;2023-06-10T12:32:00;24.00;63.50
47414;DHT22;33163;0.000;0.000;2023-06-10T12:34:35;24.00;63.50
47414;DHT22;33163;0.000;0.000;2023-06-10T12:37:04;24.00;63.40
47414;DHT22;33163;0.000;0.000;2023-06-10T12:39:33;24.00;63.40
47414;DHT22;33163;0.000;0.000;2023-06-10T12:42:01;24.00;63.40
47414;DHT22;33163;0.000;0.000;2023-06-10T12:44:29;24.00;63.40
47414;DHT22;33163;0.000;0.000;2023-06-10T12:46:56;24.00;63.40
47414;DHT22;33163;0.000;0.000;2023-06-10T12:49:23;24.00;63.30
47414;DHT22;33163;0.000;0.000;2023-06-10T12:51:51;24.00;63.30
47414;DHT22;33163;0.000;0.000;2023-06-10T12:54:18;24.00;63.30
47414;DHT22;33163;0.000;0.000;2023-06-10T12:56:46;24.00;63.30
47414;DHT22;33163;0.000;0.000;2023-06-10T12:59:13;24.00;63.30
47414;DHT22;33163;0.000;0.000;2023-06-10T13:01:40;24.00;63.30
47414;DHT22;33163;0.000;0.000;2023-06-10T13:04:07;24.00;63.30
47414;DHT22;33163;0.000;0.000;2023-06-10T13:06:35;24.00;63.30
47414;DHT22;33163;0.000;0.000;2023-06-10T13:09:06;24.00;63.30
47414;DHT22;33163;0.000;0.000;2023-06-10T13:11:33;24.00;63.30
47414;DHT22;33163;0.000;0.000;2023-06-10T13:14:02;24.00;63.30
47414;DHT22;33163;0.000;0.000;2023-06-10T13:16:30;24.00;63.40
47414;DHT22;33163;0.000;0.000;2023-06-10T13:18:57;24.00;63.40
47414;DHT22;33163;0.000;0.000;2023-06-10T13:21:24;24.00;63.40
47414;DHT22;33163;0.000;0.000;2023-06-10T13:23:51;24.00;63.40
47414;DHT22;33163;0.000;0.000;2023-06-10T13:26:18;24.00;63.40
47414;DHT22;33163;0.000;0.000;2023-06-10T13:28:44;24.00;63.50
47414;DHT22;33163;0.000;0.000;2023-06-10T13:31:12;24.00;64.20
47414;DHT22;33163;0.000;0.000;2023-06-10T13:33:39;24.00;63.50
47414;DHT22;33163;0.000;0.000;2023-06-10T13:36:06;24.00;63.50
47414;DHT22;33163;0.000;0.000;2023-06-10T13:38:33;24.00;63.50
47414;DHT22;33163;0.000;0.000;2023-06-10T13:40:59;24.00;63.60
47414;DHT22;33163;0.000;0.000;2023-06-10T13:43:26;24.00;63.50
47414;DHT22;33163;0.000;0.000;2023-06-10T13:45:54;24.00;63.60
47414;DHT22;33163;0.000;0.000;2023-06-10T13:48:22;24.00;63.70
47414;DHT22;33163;0.000;0.000;2023-06-10T13:50:49;24.00;63.60
47414;DHT22;33163;0.000;0.000;2023-06-10T13:53:16;24.00;63.80
47414;DHT22;33163;0.000;0.000;2023-06-10T13:55:43;24.00;63.90
47414;DHT22;33163;0.000;0.000;2023-06-10T13:58:09;24.00;63.80
47414;DHT22;33163;0.000;0.000;2023-06-10T14:00:36;24.00;63.80
47414;DHT22;33163;0.000;0.000;2023-06-10T14:03:03;24.00;63.90
47414;DHT22;33163;0.000;0.000;2023-06-10T14:05:31;24.00;64.00
47414;DHT22;33163;0.000;0.000;2023-06-10T14:07:59;24.00;64.20
47414;DHT22;33163;0.000;0.000;2023-06-10T14:10:26;23.90;64.10
47414;DHT22;33163;0.000;0.000;2023-06-10T14:12:52;23.90;64.30
47414;DHT22;33163;0.000;0.000;2023-06-10T14:15:19;23.90;64.30
47414;DHT22;33163;0.000;0.000;2023-06-10T14:17:46;23.90;64.30
47414;DHT22;33163;0.000;0.000;2023-06-10T14:20:13;24.00;64.40
47414;DHT22;33163;0.000;0.000;2023-06-10T14:22:43;23.90;64.40
47414;DHT22;33163;0.000;0.000;2023-06-10T14:25:10;23.90;64.40
47414;DHT22;33163;0.000;0.000;2023-06-10T14:27:37;23.90;64.40
47414;DHT22;33163;0.000;0.000;2023-06-10T14:30:05;23.90;64.40
47414;DHT22;33163;0.000;0.000;2023-06-10T14:32:32;23.90;64.40
47414;DHT22;33163;0.000;0.000;2023-06-10T14:34:59;23.90;64.50
47414;DHT22;33163;0.000;0.000;2023-06-10T14:37:26;23.90;64.60
47414;DHT22;33163;0.000;0.000;2023-06-10T14:39:54;23.90;64.50
47414;DHT22;33163;0.000;0.000;2023-06-10T14:42:21;24.00;64.50
47414;DHT22;33163;0.000;0.000;2023-06-10T14:44:47;24.00;64.50
47414;DHT22;33163;0.000;0.000;2023-06-10T14:47:14;24.00;64.50
47414;DHT22;33163;0.000;0.000;2023-06-10T14:49:41;24.00;64.50
47414;DHT22;33163;0.000;0.000;2023-06-10T14:52:09;23.90;64.40
47414;DHT22;33163;0.000;0.000;2023-06-10T14:54:36;24.00;64.50
47414;DHT22;33163;0.000;0.000;2023-06-10T14:57:05;24.00;64.50
47414;DHT22;33163;0.000;0.000;2023-06-10T14:59:32;24.00;64.50
47414;DHT22;33163;0.000;0.000;2023-06-10T15:01:59;24.00;64.50
47414;DHT22;33163;0.000;0.000;2023-06-10T15:04:26;24.00;64.50
47414;DHT22;33163;0.000;0.000;2023-06-10T15:06:53;24.00;64.50
47414;DHT22;33163;0.000;0.000;2023-06-10T15:09:20;24.00;64.50
47414;DHT22;33163;0.000;0.000;2023-06-10T15:11:47;24.00;64.60
47414;DHT22;33163;0.000;0.000;2023-06-10T15:14:15;24.00;64.70
47414;DHT22;33163;0.000;0.000;2023-06-10T15:16:42;24.00;64.70
47414;DHT22;33163;0.000;0.000;2023-06-10T15:19:09;24.00;64.70
47414;DHT22;33163;0.000;0.000;2023-06-10T15:21:35;23.90;64.70
47414;DHT22;33163;0.000;0.000;2023-06-10T15:24:03;23.90;64.70
47414;DHT22;33163;0.000;0.000;2023-06-10T15:26:30;24.00;64.70
47414;DHT22;33163;0.000;0.000;2023-06-10T15:28:56;24.00;64.70
47414;DHT22;33163;0.000;0.000;2023-06-10T15:31:25;23.90;64.90
47414;DHT22;33163;0.000;0.000;2023-06-10T15:33:51;24.00;64.80
47414;DHT22;33163;0.000;0.000;2023-06-10T15:36:18;23.90;64.70
47414;DHT22;33163;0.000;0.000;2023-06-10T15:38:45;23.90;64.70
47414;DHT22;33163;0.000;0.000;2023-06-10T15:41:13;23.90;64.60
47414;DHT22;33163;0.000;0.000;2023-06-10T15:43:40;23.90;65.20
47414;DHT22;33163;0.000;0.000;2023-06-10T15:46:08;24.00;64.70
47414;DHT22;33163;0.000;0.000;2023-06-10T15:48:36;23.90;64.70
47414;DHT22;33163;0.000;0.000;2023-06-10T15:51:03;23.90;64.70